createdAt,value
2018-09-26T00:01:33.546Z,2.00
2018-09-26T00:04:08.257Z,1.80
2018-09-26T00:06:36.490Z,2.00
2018-09-26T00:09:08.316Z,1.80
2018-09-26T00:11:36.670Z,1.83
2018-09-26T00:14:04.813Z,2.30
2018-09-26T00:16:32.966Z,1.97
2018-09-26T00:19:01.119Z,1.90
2018-09-26T00:21:29.262Z,1.70
2018-09-26T00:23:57.418Z,1.87
2018-09-26T00:26:25.563Z,1.77
2018-09-26T00:28:53.710Z,2.10
2018-09-26T00:31:21.853Z,1.90
2018-09-26T00:33:50.001Z,2.20
2018-09-26T00:36:18.234Z,1.53
2018-09-26T00:38:46.496Z,1.97
2018-09-26T00:41:14.663Z,1.60
2018-09-26T00:43:42.885Z,1.63
2018-09-26T00:46:11.418Z,1.50
2018-09-26T00:48:39.833Z,1.90
2018-09-26T00:51:08.011Z,1.40
2018-09-26T00:53:36.234Z,1.43
2018-09-26T00:56:04.406Z,1.80
2018-09-26T00:58:32.594Z,1.97
2018-09-26T01:01:00.761Z,1.63
2018-09-26T01:03:28.958Z,1.50
2018-09-26T01:05:57.121Z,1.80
2018-09-26T01:08:25.301Z,1.73
2018-09-26T01:10:53.486Z,1.87
2018-09-26T01:13:21.666Z,2.90
2018-09-26T01:15:49.856Z,1.60
2018-09-26T01:18:18.026Z,1.40
2018-09-26T01:20:46.222Z,1.63
2018-09-26T01:23:14.399Z,1.80
2018-09-26T01:25:43.065Z,1.70
2018-09-26T01:28:11.298Z,1.83
2018-09-26T01:30:39.482Z,1.60
2018-09-26T01:33:07.649Z,1.90
2018-09-26T01:35:35.835Z,1.70
2018-09-26T01:38:04.027Z,1.73
2018-09-26T01:40:32.203Z,2.63
2018-09-26T01:43:00.378Z,2.07
2018-09-26T01:45:28.561Z,1.90
2018-09-26T01:47:56.730Z,2.07
2018-09-26T01:50:24.891Z,1.50
2018-09-26T01:52:53.058Z,2.40
2018-09-26T01:55:21.214Z,1.70
2018-09-26T01:57:49.369Z,1.80
2018-09-26T02:00:17.524Z,1.60
2018-09-26T02:02:45.674Z,2.10
2018-09-26T02:05:13.829Z,1.60
2018-09-26T02:07:41.981Z,1.57
2018-09-26T02:10:10.138Z,1.90
2018-09-26T02:12:38.294Z,1.93
2018-09-26T02:15:06.458Z,1.60
2018-09-26T02:17:34.615Z,1.90
2018-09-26T02:20:02.765Z,1.77
2018-09-26T02:22:30.922Z,1.63
2018-09-26T02:24:59.494Z,1.53
2018-09-26T02:27:27.642Z,1.70
2018-09-26T02:29:55.790Z,2.00
2018-09-26T02:32:23.941Z,2.20
2018-09-26T02:34:52.114Z,1.67
2018-09-26T02:37:20.276Z,1.90
2018-09-26T02:39:48.427Z,1.80
2018-09-26T02:42:16.617Z,1.57
2018-09-26T02:44:51.446Z,1.77
2018-09-26T02:47:19.602Z,1.90
2018-09-26T02:49:47.754Z,1.80
2018-09-26T02:52:15.910Z,2.00
2018-09-26T02:54:44.075Z,1.83
2018-09-26T02:57:12.231Z,1.80
2018-09-26T02:59:40.414Z,1.33
2018-09-26T03:02:08.566Z,1.60
2018-09-26T03:04:36.718Z,1.83
2018-09-26T03:07:04.882Z,1.37
2018-09-26T03:09:33.037Z,1.70
2018-09-26T03:12:01.194Z,2.23
2018-09-26T03:14:29.346Z,2.20
2018-09-26T03:16:57.509Z,2.07
2018-09-26T03:19:25.662Z,2.20
2018-09-26T03:21:53.825Z,2.90
2018-09-26T03:24:21.973Z,2.10
2018-09-26T03:26:50.130Z,2.40
2018-09-26T03:29:18.282Z,2.93
2018-09-26T03:31:46.434Z,2.30
2018-09-26T03:34:14.593Z,1.77
2018-09-26T03:36:42.743Z,2.43
2018-09-26T03:39:10.901Z,2.60
2018-09-26T03:41:39.073Z,3.00
2018-09-26T03:44:07.262Z,2.60
2018-09-26T03:46:35.430Z,2.10
2018-09-26T03:49:03.582Z,2.00
2018-09-26T03:51:31.738Z,2.33
2018-09-26T03:53:59.885Z,2.33
2018-09-26T03:56:28.052Z,1.73
2018-09-26T03:58:56.206Z,2.37
2018-09-26T04:01:24.366Z,2.50
2018-09-26T04:03:52.531Z,2.57
2018-09-26T04:06:20.691Z,1.83
2018-09-26T04:08:48.893Z,2.60
2018-09-26T04:11:17.057Z,2.30
2018-09-26T04:13:45.434Z,2.80
2018-09-26T04:16:13.597Z,2.80
2018-09-26T04:18:41.742Z,2.13
2018-09-26T04:21:09.901Z,2.67
2018-09-26T04:23:38.074Z,1.87
2018-09-26T04:26:06.521Z,2.60
2018-09-26T04:28:34.587Z,2.03
2018-09-26T04:31:02.746Z,2.20
2018-09-26T04:33:31.053Z,2.30
2018-09-26T04:35:59.067Z,1.90
2018-09-26T04:38:27.272Z,2.30
2018-09-26T04:40:55.401Z,2.60
2018-09-26T04:43:23.605Z,2.47
2018-09-26T04:45:51.710Z,2.40
2018-09-26T04:48:19.866Z,2.10
2018-09-26T04:50:48.046Z,2.00
2018-09-26T04:53:16.193Z,3.20
2018-09-26T04:55:44.346Z,2.70
2018-09-26T04:58:12.525Z,2.70
2018-09-26T05:00:40.658Z,2.43
2018-09-26T05:03:08.818Z,2.33
2018-09-26T05:05:36.969Z,2.80
2018-09-26T05:08:05.322Z,3.07
2018-09-26T05:10:33.474Z,3.07
2018-09-26T05:13:01.638Z,3.40
2018-09-26T05:15:29.786Z,3.17
2018-09-26T05:17:57.950Z,3.43
2018-09-26T05:20:26.106Z,3.10
2018-09-26T05:22:54.278Z,3.20
2018-09-26T05:25:22.422Z,2.70
2018-09-26T05:27:50.584Z,2.90
2018-09-26T05:30:18.765Z,3.03
2018-09-26T05:32:46.918Z,2.80
2018-09-26T05:35:15.065Z,2.43
2018-09-26T05:37:43.255Z,2.40
2018-09-26T05:40:11.402Z,2.47
2018-09-26T05:42:39.553Z,2.57
2018-09-26T05:45:07.717Z,2.40
2018-09-26T05:47:35.866Z,3.37
2018-09-26T05:50:04.024Z,2.63
2018-09-26T05:52:32.165Z,2.50
2018-09-26T05:55:00.329Z,3.20
2018-09-26T05:57:28.482Z,3.50
2018-09-26T05:59:56.647Z,2.80
2018-09-26T06:02:24.807Z,3.00
2018-09-26T06:04:52.966Z,2.23
2018-09-26T06:07:21.113Z,2.60
2018-09-26T06:09:49.284Z,3.13
2018-09-26T06:12:17.435Z,2.80
2018-09-26T06:14:45.591Z,2.57
2018-09-26T06:17:13.746Z,2.70
2018-09-26T06:19:41.906Z,2.43
2018-09-26T06:22:10.100Z,3.20
2018-09-26T06:24:38.276Z,4.40
2018-09-26T06:27:06.522Z,2.87
2018-09-26T06:29:34.702Z,2.90
2018-09-26T06:32:02.846Z,3.20
2018-09-26T06:34:31.009Z,3.07
2018-09-26T06:36:59.157Z,3.77
2018-09-26T06:39:27.325Z,3.17
2018-09-26T06:41:55.484Z,4.17
2018-09-26T06:44:23.637Z,3.00
2018-09-26T06:46:51.798Z,2.80
2018-09-26T06:49:19.954Z,3.30
2018-09-26T06:51:48.105Z,3.80
2018-09-26T06:54:16.268Z,3.60
2018-09-26T06:56:44.633Z,4.07
2018-09-26T06:59:12.794Z,3.47
2018-09-26T07:01:40.952Z,3.70
2018-09-26T07:04:09.118Z,3.17
2018-09-26T07:06:37.265Z,3.23
2018-09-26T07:09:07.409Z,3.93
2018-09-26T07:11:35.564Z,4.03
2018-09-26T07:14:03.828Z,3.03
2018-09-26T07:16:31.973Z,3.37
2018-09-26T07:19:00.222Z,2.90
2018-09-26T07:21:28.385Z,2.90
2018-09-26T07:23:56.760Z,3.53
2018-09-26T07:26:24.910Z,2.97
2018-09-26T07:28:53.064Z,3.13
2018-09-26T07:31:21.249Z,3.43
2018-09-26T07:33:49.362Z,3.80
2018-09-26T07:36:17.514Z,3.10
2018-09-26T07:38:45.674Z,3.53
2018-09-26T07:41:13.833Z,3.47
2018-09-26T07:43:42.021Z,3.23
2018-09-26T07:46:10.182Z,3.20
2018-09-26T07:48:38.390Z,3.60
2018-09-26T07:51:07.045Z,3.47
2018-09-26T07:53:35.209Z,3.20
2018-09-26T07:56:03.361Z,4.30
2018-09-26T07:58:31.526Z,3.00
2018-09-26T08:00:59.673Z,3.30
2018-09-26T08:03:27.830Z,3.50
2018-09-26T08:05:56.069Z,2.83
2018-09-26T08:08:24.166Z,4.53
2018-09-26T08:10:52.346Z,3.20
2018-09-26T08:13:20.501Z,3.73
2018-09-26T08:15:48.658Z,3.43
2018-09-26T08:18:16.892Z,2.83
2018-09-26T08:20:44.969Z,3.07
2018-09-26T08:23:13.233Z,2.67
2018-09-26T08:25:41.386Z,2.60
2018-09-26T08:28:09.550Z,2.80
2018-09-26T08:30:37.714Z,3.07
2018-09-26T08:33:05.890Z,2.80
2018-09-26T08:35:34.062Z,2.90
2018-09-26T08:38:02.219Z,2.97
2018-09-26T08:40:30.382Z,3.57
2018-09-26T08:42:58.541Z,3.10
2018-09-26T08:48:01.397Z,3.17
2018-09-26T08:50:29.558Z,2.97
2018-09-26T08:52:57.713Z,2.80
2018-09-26T08:55:25.869Z,3.10
2018-09-26T08:57:54.026Z,3.27
2018-09-26T09:00:27.594Z,2.93
2018-09-26T09:02:55.867Z,3.20
2018-09-26T09:05:24.029Z,3.23
2018-09-26T09:07:52.281Z,2.70
2018-09-26T09:10:20.431Z,3.60
2018-09-26T09:12:48.613Z,2.40
2018-09-26T09:15:16.766Z,3.37
2018-09-26T09:17:45.394Z,3.00
2018-09-26T09:20:13.583Z,3.07
2018-09-26T09:22:41.686Z,2.90
2018-09-26T09:25:09.862Z,3.13
2018-09-26T09:27:38.026Z,3.10
2018-09-26T09:30:06.178Z,3.30
2018-09-26T09:35:08.090Z,2.97
2018-09-26T09:37:36.246Z,2.30
2018-09-26T09:40:04.406Z,3.00
2018-09-26T09:42:32.561Z,2.30
2018-09-26T09:45:00.718Z,3.40
2018-09-26T09:47:28.886Z,3.00
2018-09-26T09:49:57.248Z,2.97
2018-09-26T09:52:25.434Z,2.63
2018-09-26T09:54:53.599Z,3.10
2018-09-26T09:57:21.757Z,2.70
2018-09-26T09:59:49.925Z,2.90
2018-09-26T10:02:18.121Z,3.13
2018-09-26T10:04:46.273Z,3.70
2018-09-26T10:07:14.427Z,2.60
2018-09-26T10:09:42.593Z,3.30
2018-09-26T10:12:10.749Z,3.33
2018-09-26T10:14:38.918Z,2.60
2018-09-26T10:17:07.069Z,2.50
2018-09-26T10:19:35.255Z,2.63
2018-09-26T10:22:03.424Z,2.90
2018-09-26T10:24:31.590Z,2.97
2018-09-26T10:26:59.772Z,2.27
2018-09-26T10:29:27.942Z,2.80
2018-09-26T10:31:56.118Z,2.63
2018-09-26T10:34:24.298Z,2.53
2018-09-26T10:36:52.453Z,3.00
2018-09-26T10:39:20.708Z,2.67
2018-09-26T10:41:48.849Z,2.20
2018-09-26T10:44:17.093Z,2.40
2018-09-26T10:46:45.266Z,2.87
2018-09-26T10:49:13.347Z,2.50
2018-09-26T10:51:41.509Z,2.87
2018-09-26T10:54:09.669Z,2.77
2018-09-26T10:56:38.026Z,2.60
2018-09-26T10:59:06.018Z,2.37
2018-09-26T11:01:34.173Z,2.57
2018-09-26T11:04:02.334Z,2.60
2018-09-26T11:06:30.513Z,2.67
2018-09-26T11:08:58.676Z,2.20
2018-09-26T11:11:26.838Z,2.00
2018-09-26T11:13:55.010Z,2.00
2018-09-26T11:16:23.220Z,1.97
2018-09-26T11:18:51.369Z,2.30
2018-09-26T11:21:19.533Z,1.87
2018-09-26T11:23:47.670Z,2.00
2018-09-26T11:26:15.900Z,2.20
2018-09-26T11:28:44.001Z,2.30
2018-09-26T11:31:12.166Z,2.03
2018-09-26T11:33:40.341Z,1.90
2018-09-26T11:36:08.488Z,2.10
2018-09-26T11:38:36.689Z,2.43
2018-09-26T11:41:04.865Z,2.37
2018-09-26T11:43:33.025Z,2.50
2018-09-26T11:46:01.197Z,2.20
2018-09-26T11:48:29.371Z,2.30
2018-09-26T11:50:57.550Z,1.80
2018-09-26T11:53:25.706Z,2.03
2018-09-26T11:55:53.926Z,2.20
2018-09-26T11:58:22.061Z,1.67
2018-09-26T12:00:50.538Z,2.10
2018-09-26T12:03:18.706Z,1.70
2018-09-26T12:05:46.884Z,1.90
2018-09-26T12:08:15.115Z,1.90
2018-09-26T12:10:43.238Z,2.67
2018-09-26T12:13:11.409Z,4.57
2018-09-26T12:15:39.577Z,1.57
2018-09-26T12:18:07.762Z,1.60
2018-09-26T12:20:35.908Z,1.63
2018-09-26T12:23:04.088Z,2.23
2018-09-26T12:25:32.258Z,1.10
2018-09-26T12:28:00.431Z,1.40
2018-09-26T12:30:28.607Z,1.40
2018-09-26T12:32:56.813Z,1.50
2018-09-26T12:35:24.978Z,1.53
2018-09-26T12:37:53.150Z,1.50
2018-09-26T12:40:21.385Z,1.20
2018-09-26T12:42:49.553Z,1.30
2018-09-26T12:45:24.405Z,1.80
2018-09-26T12:47:52.584Z,1.70
2018-09-26T12:50:20.736Z,1.53
2018-09-26T12:52:48.894Z,1.40
2018-09-26T12:55:17.057Z,1.50
2018-09-26T12:57:45.261Z,1.70
2018-09-26T13:00:13.397Z,1.60
2018-09-26T13:02:41.631Z,1.80
2018-09-26T13:05:09.710Z,1.43
2018-09-26T13:07:37.873Z,1.60
2018-09-26T13:10:06.060Z,1.53
2018-09-26T13:12:34.190Z,1.70
2018-09-26T13:15:02.349Z,1.83
2018-09-26T13:17:30.511Z,2.03
2018-09-26T13:19:58.717Z,2.40
2018-09-26T13:22:26.893Z,1.73
2018-09-26T13:24:55.057Z,2.45
2018-09-26T13:27:23.226Z,2.85
2018-09-26T13:29:51.382Z,2.67
2018-09-26T13:32:19.633Z,2.33
2018-09-26T13:34:47.698Z,2.30
2018-09-26T13:37:15.862Z,2.60
2018-09-26T13:39:44.026Z,2.30
2018-09-26T13:42:12.240Z,2.33
2018-09-26T13:44:40.358Z,2.50
2018-09-26T13:47:08.521Z,2.73
2018-09-26T13:49:36.674Z,2.23
2018-09-26T13:52:04.903Z,2.67
2018-09-26T13:54:33.160Z,4.30
2018-09-26T13:57:01.219Z,2.20
2018-09-26T13:59:29.402Z,2.27
2018-09-26T14:01:57.568Z,5.60
2018-09-26T14:04:25.820Z,2.40
2018-09-26T14:06:53.898Z,2.13
2018-09-26T14:09:22.062Z,2.20
2018-09-26T14:11:50.251Z,3.07
2018-09-26T14:14:18.538Z,2.70
2018-09-26T14:16:46.675Z,2.60
2018-09-26T14:19:14.840Z,2.93
2018-09-26T14:21:43.075Z,2.30
2018-09-26T14:24:11.313Z,2.57
2018-09-26T14:26:39.542Z,2.23
2018-09-26T14:29:07.797Z,2.97
2018-09-26T14:31:36.030Z,2.53
2018-09-26T14:34:04.282Z,2.23
2018-09-26T14:36:32.506Z,3.37
2018-09-26T14:39:00.869Z,3.23
2018-09-26T14:41:29.025Z,4.17
2018-09-26T14:43:57.634Z,3.77
2018-09-26T14:46:25.861Z,3.10
2018-09-26T14:48:54.106Z,2.90
2018-09-26T14:51:22.338Z,2.60
2018-09-26T14:53:50.594Z,2.90
2018-09-26T14:56:18.842Z,3.30
2018-09-26T14:58:47.065Z,3.83
2018-09-26T15:01:15.298Z,5.27
2018-09-26T15:03:43.570Z,5.17
2018-09-26T15:06:11.868Z,3.30
2018-09-26T15:08:40.079Z,3.30
2018-09-26T15:11:08.297Z,3.10
2018-09-26T15:13:36.542Z,2.90
2018-09-26T15:16:04.787Z,3.50
2018-09-26T15:18:33.029Z,3.33
2018-09-26T15:21:01.254Z,3.07
2018-09-26T15:23:29.486Z,2.97
2018-09-26T15:25:57.741Z,3.57
2018-09-26T15:28:26.028Z,3.00
2018-09-26T15:30:54.222Z,2.90
2018-09-26T15:33:22.464Z,3.43
2018-09-26T15:35:50.710Z,2.33
2018-09-26T15:38:18.998Z,3.07
2018-09-26T15:40:47.182Z,3.03
2018-09-26T15:43:15.463Z,3.37
2018-09-26T15:45:43.712Z,3.50
2018-09-26T15:48:12.051Z,2.77
2018-09-26T15:50:40.192Z,3.70
2018-09-26T15:53:08.410Z,2.70
2018-09-26T15:55:36.817Z,2.73
2018-09-26T15:58:04.926Z,2.40
2018-09-26T16:00:33.129Z,2.87
2018-09-26T16:03:01.379Z,2.33
2018-09-26T16:05:29.505Z,2.10
2018-09-26T16:07:57.655Z,2.30
2018-09-26T16:10:25.895Z,2.10
2018-09-26T16:12:53.982Z,2.30
2018-09-26T16:15:22.154Z,2.10
2018-09-26T16:17:50.325Z,2.00
2018-09-26T16:20:18.535Z,2.10
2018-09-26T16:22:46.654Z,2.40
2018-09-26T16:25:14.828Z,1.60
2018-09-26T16:27:42.973Z,2.07
2018-09-26T16:30:11.488Z,2.40
2018-09-26T16:32:39.577Z,1.70
2018-09-26T16:35:07.906Z,2.13
2018-09-26T16:37:36.122Z,2.00
2018-09-26T16:40:04.313Z,1.70
2018-09-26T16:42:32.441Z,2.13
2018-09-26T16:45:00.711Z,1.77
2018-09-26T16:47:28.865Z,1.97
2018-09-26T16:49:57.101Z,1.87
2018-09-26T16:52:25.329Z,1.87
2018-09-26T16:54:53.426Z,1.83
2018-09-26T16:57:21.643Z,1.80
2018-09-26T16:59:49.810Z,1.90
2018-09-26T17:02:18.059Z,1.90
2018-09-26T17:04:46.148Z,2.10
2018-09-26T17:07:14.361Z,1.77
2018-09-26T17:09:42.474Z,2.40
2018-09-26T17:12:10.663Z,2.60
2018-09-26T17:14:38.783Z,3.40
2018-09-26T17:17:07.115Z,4.13
2018-09-26T17:19:35.310Z,3.10
2018-09-26T17:22:03.488Z,2.90
2018-09-26T17:24:31.640Z,2.23
2018-09-26T17:26:59.810Z,2.57
2018-09-26T17:29:28.018Z,2.60
2018-09-26T17:31:56.178Z,3.03
2018-09-26T17:34:24.354Z,2.07
2018-09-26T17:36:52.510Z,2.20
2018-09-26T17:39:20.674Z,1.80
2018-09-26T17:41:48.871Z,2.30
2018-09-26T17:44:17.002Z,2.10
2018-09-26T17:46:45.169Z,2.13
2018-09-26T17:49:13.338Z,1.97
2018-09-26T17:51:41.542Z,2.20
2018-09-26T17:54:09.712Z,2.27
2018-09-26T17:56:37.878Z,2.13
2018-09-26T17:59:06.063Z,2.40
2018-09-26T18:01:34.265Z,2.70
2018-09-26T18:04:02.417Z,2.30
2018-09-26T18:06:30.597Z,2.10
2018-09-26T18:08:58.810Z,2.43
2018-09-26T18:11:26.926Z,2.20
2018-09-26T18:13:55.096Z,2.33
2018-09-26T18:16:23.252Z,1.80
2018-09-26T18:18:51.415Z,1.80
2018-09-26T18:21:19.577Z,2.53
2018-09-26T18:23:47.750Z,2.47
2018-09-26T18:26:15.913Z,2.20
2018-09-26T18:28:44.086Z,4.17
2018-09-26T18:31:12.288Z,3.60
2018-09-26T18:33:40.498Z,3.50
2018-09-26T18:36:08.622Z,3.70
2018-09-26T18:38:36.932Z,10.80
2018-09-26T18:41:05.083Z,12.97
2018-09-26T18:43:33.241Z,10.70
2018-09-26T18:46:01.426Z,5.67
2018-09-26T18:48:29.770Z,5.83
2018-09-26T18:50:58.046Z,5.67
2018-09-26T18:53:26.174Z,4.00
2018-09-26T18:55:54.329Z,3.83
2018-09-26T18:58:22.493Z,3.03
2018-09-26T19:00:50.657Z,2.60
2018-09-26T19:03:18.829Z,2.70
2018-09-26T19:05:46.982Z,2.80
2018-09-26T19:08:15.138Z,2.40
2018-09-26T19:10:43.305Z,2.67
2018-09-26T19:13:11.590Z,2.33
2018-09-26T19:15:46.358Z,2.60
2018-09-26T19:19:17.841Z,2.67
2018-09-26T19:21:45.998Z,2.50
2018-09-26T19:24:14.166Z,2.57
2018-09-26T19:26:42.318Z,2.40
2018-09-26T19:29:10.486Z,2.50
2018-09-26T19:31:38.662Z,3.20
2018-09-26T19:34:06.887Z,2.20
2018-09-26T19:36:35.078Z,5.07
2018-09-26T19:39:04.417Z,3.70
2018-09-26T19:41:32.562Z,2.73
2018-09-26T19:44:00.894Z,2.53
2018-09-26T19:46:28.894Z,2.57
2018-09-26T19:48:57.066Z,2.83
2018-09-26T19:51:25.230Z,2.40
2018-09-26T19:53:53.386Z,2.60
2018-09-26T19:58:53.824Z,2.97
2018-09-26T20:01:21.978Z,3.00
2018-09-26T20:03:50.146Z,2.30
2018-09-26T20:06:18.295Z,2.80
2018-09-26T20:08:46.459Z,2.77
2018-09-26T20:11:14.619Z,2.50
2018-09-26T20:13:42.811Z,2.70
2018-09-26T20:16:10.986Z,2.80
2018-09-26T20:18:39.147Z,2.70
2018-09-26T20:21:07.545Z,2.70
2018-09-26T20:23:35.762Z,2.40
2018-09-26T20:26:03.874Z,3.10
2018-09-26T20:28:32.032Z,3.10
2018-09-26T20:31:00.210Z,2.80
2018-09-26T20:33:28.360Z,3.00
2018-09-26T20:35:56.797Z,2.67
2018-09-26T20:38:24.950Z,2.63
2018-09-26T20:40:53.114Z,2.90
2018-09-26T20:43:21.266Z,2.23
2018-09-26T20:45:49.422Z,3.00
2018-09-26T20:48:17.577Z,2.67
2018-09-26T20:50:45.741Z,3.13
2018-09-26T20:53:13.894Z,2.90
2018-09-26T20:55:42.062Z,2.93
2018-09-26T20:58:10.216Z,2.40
2018-09-26T21:00:38.395Z,2.73
2018-09-26T21:03:06.538Z,2.90
2018-09-26T21:05:35.138Z,2.40
2018-09-26T21:08:03.293Z,3.00
2018-09-26T21:10:31.462Z,3.40
2018-09-26T21:12:59.618Z,3.27
2018-09-26T21:15:27.770Z,3.97
2018-09-26T21:17:55.986Z,2.83
2018-09-26T21:20:24.090Z,3.10
2018-09-26T21:22:52.318Z,3.03
2018-09-26T21:25:20.654Z,2.77
2018-09-26T21:27:48.810Z,2.73
2018-09-26T21:30:16.974Z,2.70
2018-09-26T21:32:45.134Z,2.47
2018-09-26T21:35:13.291Z,2.90
2018-09-26T21:37:41.446Z,3.67
2018-09-26T21:40:09.606Z,2.93
2018-09-26T21:42:37.750Z,3.00
2018-09-26T21:45:06.195Z,3.47
2018-09-26T21:47:34.342Z,2.80
2018-09-26T21:50:02.531Z,3.50
2018-09-26T21:52:31.106Z,3.30
2018-09-26T21:54:59.258Z,2.70
2018-09-26T21:57:27.406Z,3.13
2018-09-26T21:59:55.577Z,3.80
2018-09-26T22:02:23.738Z,3.23
2018-09-26T22:04:51.891Z,3.43
2018-09-26T22:07:20.062Z,3.20
2018-09-26T22:09:48.238Z,3.43
2018-09-26T22:12:16.434Z,3.10
2018-09-26T22:14:44.594Z,2.80
2018-09-26T22:17:12.757Z,3.27
2018-09-26T22:19:40.915Z,2.83
2018-09-26T22:22:09.081Z,3.40
2018-09-26T22:24:37.240Z,3.00
2018-09-26T22:27:05.397Z,3.03
2018-09-26T22:29:33.579Z,3.10
2018-09-26T22:32:01.742Z,3.50
2018-09-26T22:34:29.894Z,2.50
2018-09-26T22:36:58.065Z,3.50
2018-09-26T22:39:26.238Z,2.73
2018-09-26T22:41:54.401Z,3.13
2018-09-26T22:44:22.553Z,2.87
2018-09-26T22:46:50.705Z,3.20
2018-09-26T22:49:18.865Z,3.37
2018-09-26T22:51:47.026Z,3.43
2018-09-26T22:54:15.182Z,3.43
2018-09-26T22:56:43.336Z,2.90
2018-09-26T22:59:11.717Z,3.00
2018-09-26T23:01:39.933Z,2.80
2018-09-26T23:04:08.154Z,2.40
2018-09-26T23:06:36.326Z,3.17
2018-09-26T23:09:07.297Z,2.57
2018-09-26T23:11:35.457Z,2.70
2018-09-26T23:14:03.617Z,2.87
2018-09-26T23:16:31.802Z,3.13
2018-09-26T23:18:59.961Z,3.03
2018-09-26T23:21:28.162Z,3.20
2018-09-26T23:23:56.322Z,2.90
2018-09-26T23:26:24.517Z,3.17
2018-09-26T23:28:52.681Z,2.90
2018-09-26T23:31:20.867Z,2.67
2018-09-26T23:33:49.009Z,3.10
2018-09-26T23:36:17.174Z,3.10
2018-09-26T23:38:45.382Z,3.90
2018-09-26T23:41:13.538Z,3.33
2018-09-26T23:43:41.696Z,3.20
2018-09-26T23:46:09.850Z,2.80
2018-09-26T23:48:38.002Z,3.40
2018-09-26T23:51:06.243Z,2.90
2018-09-26T23:53:34.438Z,3.30
2018-09-26T23:56:02.586Z,3.50
2018-09-26T23:58:30.771Z,3.67
